Time;durP1;ratioP1;P1;durP2;ratioP2;P2;SDS_P1;SDS_P2;PMS_P1;PMS_P2;Temp;Humidity;BMP_temperature;BMP_pressure;BME280_temperature;BME280_humidity;BME280_pressure;Samples;Min_cycle;Max_cycle;Signal;HPM_P1;HPM_P2
2024/02/01 00:00:37;;;;;;;6.90;2.55;;;;;;;8.01;94.95;101138.91;6208729;23;20028;-78
2024/02/01 00:03:03;;;;;;;4.15;2.70;;;;;;;8.02;95.17;101137.81;6221557;23;20091;-78
2024/02/01 00:05:28;;;;;;;4.80;1.83;;;;;;;8.10;95.17;101130.81;6161529;23;20346;-78
2024/02/01 00:07:55;;;;;;;9.15;2.28;;;;;;;8.10;95.01;101123.56;6224255;23;20016;-78
2024/02/01 00:10:21;;;;;;;9.25;2.92;;;;;;;8.01;96.12;101120.13;6186006;23;20005;-78
2024/02/01 00:12:46;;;;;;;3.97;2.63;;;;;;;8.00;96.28;101121.25;6222119;23;20023;-78
2024/02/01 00:15:13;;;;;;;3.65;2.67;;;;;;;8.08;96.07;101104.34;6219419;23;20346;-78
2024/02/01 00:17:38;;;;;;;3.20;1.92;;;;;;;8.16;96.38;101116.09;6218717;23;20008;-79
2024/02/01 00:20:05;;;;;;;4.93;2.58;;;;;;;8.05;96.70;101106.88;6208257;23;20008;-79
2024/02/01 00:22:31;;;;;;;3.88;2.85;;;;;;;8.07;96.29;101104.66;6219336;23;20004;-78
2024/02/01 00:24:56;;;;;;;5.60;2.85;;;;;;;8.11;97.12;101105.56;6196318;23;20380;-78
2024/02/01 00:27:22;;;;;;;5.43;2.58;;;;;;;8.09;96.61;101110.50;6209376;23;20382;-78
2024/02/01 00:29:47;;;;;;;10.93;4.03;;;;;;;8.07;97.25;101101.97;6195780;23;20473;-79
2024/02/01 00:32:13;;;;;;;5.88;2.92;;;;;;;7.98;97.84;101103.91;6241738;23;20066;-78
2024/02/01 00:34:44;;;;;;;3.35;2.28;;;;;;;8.16;97.34;101102.69;6242933;23;20008;-78
2024/02/01 00:37:10;;;;;;;5.82;2.75;;;;;;;8.07;97.29;101101.97;6207504;23;20034;-78
2024/02/01 00:39:36;;;;;;;5.35;3.05;;;;;;;7.96;97.86;101104.25;6246193;23;20003;-78
2024/02/01 00:42:02;;;;;;;4.40;2.78;;;;;;;7.72;99.23;101088.03;6243110;23;20320;-78
2024/02/01 00:44:27;;;;;;;3.55;2.55;;;;;;;7.90;99.77;101100.19;6236606;23;20027;-79
2024/02/01 00:46:53;;;;;;;5.97;3.03;;;;;;;8.01;99.51;101092.56;6228081;23;20007;-78
2024/02/01 00:49:18;;;;;;;10.57;2.83;;;;;;;8.08;98.89;101101.66;6241066;23;20019;-78
2024/02/01 00:51:44;;;;;;;4.50;2.97;;;;;;;8.08;98.27;101104.34;6233368;23;20023;-78
2024/02/01 00:54:09;;;;;;;8.77;3.75;;;;;;;7.99;99.29;101090.19;6245346;23;20317;-79
2024/02/01 00:56:35;;;;;;;6.35;3.25;;;;;;;7.98;99.46;101074.44;6244625;23;20032;-78
2024/02/01 00:59:00;;;;;;;3.72;2.47;;;;;;;8.00;100.00;101069.53;6233912;23;20016;-78
2024/02/01 01:01:26;;;;;;;3.90;2.50;;;;;;;7.95;100.00;101075.88;6228484;23;20000;-78
2024/02/01 01:03:51;;;;;;;3.83;2.30;;;;;;;7.77;100.00;101063.69;6228854;23;20438;-78
2024/02/01 01:06:16;;;;;;;6.60;3.13;;;;;;;7.97;100.00;101070.97;6218742;23;20008;-78
2024/02/01 01:08:42;;;;;;;3.95;2.38;;;;;;;7.97;100.00;101057.56;6201904;23;20466;-78
2024/02/01 01:11:07;;;;;;;5.78;3.38;;;;;;;8.04;100.00;101070.44;6213253;23;20004;-78
2024/02/01 01:13:33;;;;;;;7.55;3.08;;;;;;;7.90;100.00;101062.66;6238534;23;20026;-78
2024/02/01 01:15:58;;;;;;;4.90;3.17;;;;;;;8.04;100.00;101065.06;6180242;23;20007;-78
2024/02/01 01:18:24;;;;;;;4.13;2.67;;;;;;;8.09;100.00;101064.91;6205900;23;20447;-78
2024/02/01 01:20:49;;;;;;;5.80;2.83;;;;;;;8.06;100.00;101055.59;6235254;23;20087;-78
2024/02/01 01:23:15;;;;;;;6.55;3.28;;;;;;;8.01;100.00;101058.47;6238482;23;20122;-78
2024/02/01 01:25:40;;;;;;;6.53;2.92;;;;;;;7.93;100.00;101047.81;6244737;23;20012;-78
2024/02/01 01:28:06;;;;;;;5.88;3.50;;;;;;;8.06;100.00;101046.75;6223547;23;20435;-78
2024/02/01 01:30:31;;;;;;;4.38;2.55;;;;;;;8.06;100.00;101050.22;6240696;23;20034;-78
2024/02/01 01:32:57;;;;;;;6.82;3.53;;;;;;;8.04;100.00;101057.81;6240831;23;20065;-78
2024/02/01 01:35:22;;;;;;;6.88;2.97;;;;;;;8.09;100.00;101046.13;6241723;23;20040;-78
2024/02/01 01:37:47;;;;;;;5.65;2.97;;;;;;;8.04;100.00;101049.78;6214882;23;20008;-78
2024/02/01 01:40:13;;;;;;;6.70;3.47;;;;;;;8.07;100.00;101042.97;6213911;23;20015;-78
2024/02/01 01:42:43;;;;;;;5.60;2.53;;;;;;;8.14;100.00;101035.97;6248558;23;20008;-78
2024/02/01 01:45:09;;;;;;;3.72;2.42;;;;;;;8.09;100.00;101040.75;6183637;23;20094;-79
2024/02/01 01:47:34;;;;;;;4.93;3.17;;;;;;;8.06;100.00;101039.50;6232818;23;20375;-78
2024/02/01 01:50:00;;;;;;;8.05;3.42;;;;;;;8.07;100.00;101040.31;6244290;23;20099;-78
2024/02/01 01:52:27;;;;;;;7.97;2.97;;;;;;;8.20;100.00;101037.34;6235045;23;20756;-78
2024/02/01 01:54:53;;;;;;;6.22;2.40;;;;;;;8.32;100.00;101033.16;6242076;23;20004;-78
2024/02/01 01:57:19;;;;;;;7.85;3.42;;;;;;;8.27;100.00;101018.03;6212222;23;20466;-78
2024/02/01 01:59:45;;;;;;;5.00;3.05;;;;;;;8.32;100.00;101027.81;6201895;23;20095;-79
2024/02/01 02:02:11;;;;;;;3.20;2.20;;;;;;;8.34;100.00;101034.41;6212542;23;20047;-78
2024/02/01 02:04:37;;;;;;;5.22;2.78;;;;;;;8.19;100.00;101043.81;6207073;23;20038;-78
2024/02/01 02:07:03;;;;;;;3.67;2.65;;;;;;;8.28;100.00;101029.56;6243291;23;20000;-78
2024/02/01 02:09:28;;;;;;;5.45;2.50;;;;;;;8.29;100.00;101042.66;6251168;23;20063;-78
2024/02/01 02:11:54;;;;;;;9.35;2.63;;;;;;;8.37;100.00;101046.38;6212429;23;20004;-78
2024/02/01 02:14:19;;;;;;;3.83;2.33;;;;;;;8.48;100.00;101037.56;6243092;23;20008;-78
2024/02/01 02:16:45;;;;;;;5.03;2.53;;;;;;;8.26;100.00;101039.84;6196212;23;20026;-78
2024/02/01 02:19:10;;;;;;;4.30;2.63;;;;;;;8.39;100.00;101031.50;6232177;23;20012;-78
2024/02/01 02:21:48;;;;;;;4.80;2.75;;;;;;;8.37;100.00;101033.75;6177212;23;20529;-78
2024/02/01 02:24:15;;;;;;;3.90;2.47;;;;;;;8.52;100.00;101035.00;6185625;23;20389;-78
2024/02/01 02:26:42;;;;;;;5.65;2.95;;;;;;;8.37;100.00;101031.06;6237314;23;20007;-78
2024/02/01 02:29:08;;;;;;;4.72;2.72;;;;;;;8.48;100.00;101034.13;6240165;23;20598;-78
2024/02/01 02:31:34;;;;;;;5.20;2.88;;;;;;;8.48;100.00;101028.75;6245817;23;20076;-78
2024/02/01 02:33:59;;;;;;;4.15;2.55;;;;;;;8.51;100.00;101041.50;6180982;23;20042;-78
2024/02/01 02:36:25;;;;;;;2.72;2.17;;;;;;;8.55;100.00;101032.47;6209669;23;20062;-78
2024/02/01 02:38:51;;;;;;;4.18;2.75;;;;;;;8.65;100.00;101034.72;6211915;23;20441;-78
2024/02/01 08:41:22;;;;;;;4.78;0.85;;;;;;;8.09;97.65;101551.13;6229680;22;20070;-75
2024/02/01 08:43:47;;;;;;;2.85;0.90;;;;;;;7.94;97.76;101548.13;6241450;23;20431;-75
2024/02/01 08:46:13;;;;;;;8.00;1.65;;;;;;;8.09;97.34;101564.53;6217268;23;20034;-75
2024/02/01 08:48:39;;;;;;;1.75;1.27;;;;;;;8.11;96.69;101556.97;6254362;23;20350;-75
2024/02/01 08:51:05;;;;;;;2.85;1.25;;;;;;;8.06;97.15;101562.50;6244133;23;20426;-75
2024/02/01 08:53:31;;;;;;;6.90;1.20;;;;;;;8.11;96.88;101559.66;6241267;23;20000;-75
2024/02/01 08:55:57;;;;;;;2.63;0.45;;;;;;;8.13;96.68;101564.69;6190727;23;20034;-75
2024/02/01 08:58:22;;;;;;;2.97;0.68;;;;;;;8.08;96.38;101559.50;6216270;23;20012;-75
2024/02/01 09:00:49;;;;;;;2.28;0.70;;;;;;;8.19;96.09;101576.84;6216084;23;20015;-75
2024/02/01 09:03:17;;;;;;;9.82;1.00;;;;;;;8.10;96.50;101576.06;6252783;23;20027;-75
2024/02/01 09:05:47;;;;;;;1.30;1.00;;;;;;;8.08;96.00;101575.59;6254146;23;20134;-74
2024/02/01 09:08:19;;;;;;;3.42;0.88;;;;;;;8.19;95.92;101580.34;6227212;23;20351;-75
2024/02/01 09:10:57;;;;;;;3.42;0.82;;;;;;;8.32;96.21;101584.00;6243172;23;20034;-75
2024/02/01 09:13:24;;;;;;;4.82;1.42;;;;;;;8.29;95.52;101586.50;6243872;23;20038;-75
2024/02/01 09:15:51;;;;;;;1.08;0.45;;;;;;;8.43;95.09;101582.56;6216302;23;20003;-76
2024/02/01 09:18:21;;;;;;;6.00;1.17;;;;;;;8.54;94.49;101596.44;6226209;23;20545;-76
2024/02/01 09:20:47;;;;;;;7.05;1.10;;;;;;;8.55;94.28;101601.50;6216328;23;20027;-76
2024/02/01 09:23:13;;;;;;;23.52;1.48;;;;;;;8.39;94.37;101594.25;6216739;23;20405;-76
2024/02/01 09:25:43;;;;;;;4.93;1.10;;;;;;;8.45;94.45;101601.84;6191743;23;20054;-75
2024/02/01 09:28:13;;;;;;;2.25;1.08;;;;;;;8.61;93.81;101602.94;6253487;23;20090;-75
2024/02/01 09:30:45;;;;;;;3.60;1.35;;;;;;;8.59;93.66;101597.09;6253900;23;20453;-75
2024/02/01 09:33:23;;;;;;;9.55;1.45;;;;;;;8.51;93.78;101615.88;6225990;23;20287;-76
2024/02/01 09:35:52;;;;;;;4.50;1.20;;;;;;;8.63;93.45;101621.41;6215222;23;20016;-75
2024/02/01 09:38:19;;;;;;;2.58;1.27;;;;;;;8.62;94.47;101635.91;6254048;23;20058;-75
2024/02/01 09:40:46;;;;;;;8.85;0.98;;;;;;;8.85;93.15;101616.63;6215386;23;20012;-75
2024/02/01 09:43:23;;;;;;;10.70;1.70;;;;;;;8.88;93.58;101626.72;6253693;23;20016;-76
2024/02/01 09:45:55;;;;;;;9.82;1.13;;;;;;;8.74;92.02;101625.34;6192114;23;20020;-76
2024/02/01 09:48:21;;;;;;;7.43;1.40;;;;;;;8.99;92.09;101629.88;6226688;23;20446;-76
2024/02/01 09:50:56;;;;;;;10.85;1.95;;;;;;;8.96;91.94;101633.97;6241278;23;20004;-75
2024/02/01 09:53:24;;;;;;;10.60;1.50;;;;;;;9.00;91.55;101642.22;6226525;23;20016;-75
2024/02/01 09:55:52;;;;;;;5.45;1.10;;;;;;;9.01;91.72;101644.56;6253712;23;20460;-76
2024/02/01 09:58:18;;;;;;;3.25;0.80;;;;;;;8.93;92.45;101652.63;6191353;23;20012;-76
2024/02/01 10:00:45;;;;;;;2.70;0.93;;;;;;;9.14;91.59;101631.28;6191460;23;20363;-76
2024/02/01 10:03:15;;;;;;;1.65;1.42;;;;;;;9.03;90.78;101645.03;6216503;23;20027;-76
2024/02/01 10:05:42;;;;;;;9.88;0.70;;;;;;;9.00;90.91;101648.34;6216835;23;20454;-76
2024/02/01 10:08:15;;;;;;;3.70;1.38;;;;;;;9.09;90.95;101643.75;6216154;23;20339;-76
2024/02/01 10:10:41;;;;;;;5.72;0.68;;;;;;;9.24;90.87;101660.47;6217002;23;20008;-76
2024/02/01 10:13:13;;;;;;;11.25;2.72;;;;;;;9.54;89.89;101654.81;6216751;23;20091;-76
2024/02/01 10:15:46;;;;;;;4.63;1.08;;;;;;;9.66;89.15;101651.44;6254328;23;20469;-76
2024/02/01 10:18:16;;;;;;;2.75;1.00;;;;;;;9.68;89.02;101658.09;6243833;23;20008;-75
2024/02/01 10:20:53;;;;;;;7.17;1.13;;;;;;;9.79;87.96;101667.38;6253462;23;20046;-75
2024/02/01 10:23:20;;;;;;;1.27;0.57;;;;;;;9.66;88.16;101664.91;6243249;23;20154;-76
2024/02/01 10:25:48;;;;;;;5.18;1.00;;;;;;;9.83;87.17;101654.06;6253486;23;20020;-75
2024/02/01 10:28:18;;;;;;;5.63;1.40;;;;;;;9.56;87.63;101655.28;6243810;23;20103;-76
2024/02/01 10:30:45;;;;;;;4.47;2.17;;;;;;;9.72;86.89;101652.84;6243757;23;20011;-76
2024/02/01 10:33:13;;;;;;;9.25;1.33;;;;;;;9.71;86.77;101656.66;6242415;23;20011;-76
2024/02/01 10:35:39;;;;;;;5.43;0.88;;;;;;;9.56;87.17;101646.44;6226854;23;20344;-76
2024/02/01 10:38:13;;;;;;;8.30;0.80;;;;;;;9.81;86.81;101659.00;6253056;23;20438;-76
2024/02/01 10:40:52;;;;;;;8.48;0.90;;;;;;;10.01;85.84;101656.34;6241272;23;20015;-76
2024/02/01 10:43:25;;;;;;;8.00;1.13;;;;;;;10.02;86.02;101670.59;6190767;23;20016;-76
2024/02/01 10:46:05;;;;;;;2.55;0.85;;;;;;;10.05;85.13;101653.78;6216448;23;20015;-76
2024/02/01 10:48:34;;;;;;;2.08;0.90;;;;;;;10.22;85.91;101661.00;6226259;23;20008;-76
2024/02/01 10:51:09;;;;;;;6.43;0.95;;;;;;;10.14;85.23;101645.69;6216293;23;19996;-76
2024/02/01 10:53:39;;;;;;;11.00;1.83;;;;;;;10.24;84.06;101650.69;6240759;23;20095;-76
2024/02/01 10:56:13;;;;;;;5.88;1.85;;;;;;;10.08;83.95;101653.13;6215539;23;20008;-76
2024/02/01 10:58:40;;;;;;;1.83;0.90;;;;;;;10.30;83.63;101652.06;6242692;23;20012;-77
2024/02/01 11:01:06;;;;;;;6.05;1.08;;;;;;;10.25;82.82;101654.94;6225885;23;20000;-75
2024/02/01 11:03:31;;;;;;;11.90;1.45;;;;;;;10.24;82.94;101632.63;6216227;23;20042;-76
2024/02/01 11:05:57;;;;;;;3.30;0.80;;;;;;;10.30;83.26;101639.38;6190740;23;20451;-76
2024/02/01 11:08:22;;;;;;;6.55;1.40;;;;;;;10.32;83.16;101647.13;6225113;23;20406;-76
2024/02/01 11:10:59;;;;;;;6.65;1.45;;;;;;;10.38;81.89;101648.50;6242541;23;20016;-76
2024/02/01 11:13:29;;;;;;;3.72;0.52;;;;;;;10.43;82.41;101641.03;6215649;23;20019;-77
2024/02/01 11:15:58;;;;;;;2.92;0.93;;;;;;;10.41;82.91;101637.09;6214448;23;20070;-77
2024/02/01 11:18:24;;;;;;;7.40;0.98;;;;;;;10.44;82.12;101623.75;6213716;23;20014;-77
2024/02/01 11:20:57;;;;;;;4.65;0.93;;;;;;;10.56;80.97;101642.69;6214323;23;20000;-77
2024/02/01 11:23:23;;;;;;;4.43;1.13;;;;;;;10.63;80.85;101644.81;6251935;23;20016;-76
2024/02/01 11:25:51;;;;;;;3.40;1.23;;;;;;;10.68;80.75;101648.09;6241879;23;20014;-76
2024/02/01 11:28:28;;;;;;;9.68;1.67;;;;;;;10.75;80.77;101648.38;6251733;23;20000;-77
2024/02/01 11:30:54;;;;;;;3.85;1.25;;;;;;;10.85;80.24;101647.97;6189812;23;20087;-76
2024/02/01 11:33:25;;;;;;;1.63;0.63;;;;;;;10.87;79.36;101651.13;6213979;23;20032;-76
2024/02/01 11:35:55;;;;;;;8.95;2.38;;;;;;;10.78;79.92;101645.00;6250744;23;20087;-75
2024/02/01 11:38:20;;;;;;;0.70;0.70;;;;;;;10.95;79.17;101657.53;6215687;23;20435;-76
2024/02/01 11:40:45;;;;;;;6.82;1.90;;;;;;;10.93;78.59;101648.19;6252665;23;20010;-77
2024/02/01 11:43:11;;;;;;;6.63;1.08;;;;;;;10.64;77.52;101663.38;6250569;23;20071;-76
2024/02/01 11:45:36;;;;;;;3.38;1.10;;;;;;;10.51;78.35;101659.00;6215874;23;20057;-77
2024/02/01 11:48:03;;;;;;;5.30;1.17;;;;;;;10.60;78.29;101684.00;6185272;23;20016;-76
2024/02/01 11:50:28;;;;;;;3.58;1.88;;;;;;;10.73;76.19;101660.59;6245743;23;20016;-75
2024/02/01 11:53:00;;;;;;;3.35;1.90;;;;;;;10.72;76.70;101678.66;6235847;23;20016;-76
2024/02/01 11:55:29;;;;;;;0.75;0.38;;;;;;;10.74;76.09;101689.88;6213143;23;20019;-76
2024/02/01 11:57:59;;;;;;;6.47;1.77;;;;;;;10.51;75.69;101691.34;6240072;23;20012;-76
2024/02/01 12:00:24;;;;;;;0.65;0.55;;;;;;;10.56;75.28;101680.38;6237623;23;20008;-75
2024/02/01 12:02:50;;;;;;;5.82;1.70;;;;;;;10.67;75.62;101689.63;6211356;23;20027;-76
2024/02/01 12:05:17;;;;;;;9.25;1.33;;;;;;;10.58;76.26;101691.63;6249363;23;20012;-76
2024/02/01 12:07:44;;;;;;;2.17;0.75;;;;;;;10.52;75.48;101694.81;6211033;23;20047;-76
2024/02/01 12:10:11;;;;;;;3.78;1.00;;;;;;;10.37;75.56;101692.72;6237844;23;20000;-77
2024/02/01 12:12:40;;;;;;;1.13;0.57;;;;;;;10.46;76.25;101698.81;6238206;23;20012;-77
2024/02/01 12:15:07;;;;;;;4.72;1.10;;;;;;;10.55;75.65;101707.66;6239224;23;20066;-76
2024/02/01 12:17:42;;;;;;;6.05;1.02;;;;;;;10.03;75.51;101685.59;6248453;23;20004;-77
2024/02/01 12:20:17;;;;;;;9.90;1.55;;;;;;;10.37;76.37;101698.91;6248995;23;20008;-76
2024/02/01 12:22:48;;;;;;;8.73;1.00;;;;;;;10.18;75.65;101697.75;6247949;23;20011;-76
2024/02/01 12:25:18;;;;;;;4.13;1.03;;;;;;;10.23;76.14;101711.00;6222340;23;20019;-76
2024/02/01 12:27:48;;;;;;;7.10;2.20;;;;;;;10.23;75.65;101711.81;6237882;23;20247;-76
2024/02/01 12:30:14;;;;;;;4.90;0.68;;;;;;;10.32;74.96;101709.03;6238756;23;20058;-77
2024/02/01 12:32:46;;;;;;;7.90;1.35;;;;;;;10.33;75.17;101705.25;6238164;23;20023;-76
2024/02/01 12:35:17;;;;;;;6.03;1.38;;;;;;;10.49;73.86;101703.56;6238177;23;20438;-77
2024/02/01 12:37:43;;;;;;;;;;;;;;;10.35;74.09;101711.09;6210552;23;20346;-76
2024/02/01 12:40:13;;;;;;;2.15;0.55;;;;;;;10.42;74.43;101696.00;6205170;23;19919;-75
2024/02/01 12:42:39;;;;;;;9.45;1.27;;;;;;;10.48;72.93;101710.84;6205992;23;20020;-76
2024/02/01 12:45:07;;;;;;;2.97;0.88;;;;;;;10.29;73.81;101705.13;6217586;23;20009;-76
2024/02/01 12:47:37;;;;;;;6.32;0.70;;;;;;;10.35;74.07;101703.81;6205651;23;20087;-76
2024/02/01 12:50:05;;;;;;;6.28;0.70;;;;;;;10.73;73.58;101696.41;6207300;23;20016;-76
2024/02/01 12:52:31;;;;;;;7.57;1.25;;;;;;;10.69;73.11;101713.53;6179046;23;20487;-76
2024/02/01 12:55:00;;;;;;;8.70;1.30;;;;;;;10.90;72.50;101719.72;6204255;23;20345;-76
2024/02/01 12:57:26;;;;;;;1.80;0.60;;;;;;;10.94;71.56;101714.47;6207673;23;20009;-76
2024/02/01 12:59:53;;;;;;;5.97;1.33;;;;;;;10.84;71.40;101711.03;6215217;23;20019;-76
2024/02/01 13:02:19;;;;;;;9.63;1.10;;;;;;;10.84;71.76;101721.81;6206235;23;20167;-76
2024/02/01 13:04:45;;;;;;;2.78;0.82;;;;;;;10.75;71.34;101726.50;6200665;23;20098;-76
2024/02/01 13:07:11;;;;;;;9.60;1.25;;;;;;;10.64;71.92;101729.91;6214809;23;20011;-76
2024/02/01 13:09:41;;;;;;;6.22;1.27;;;;;;;10.78;71.93;101738.53;6207140;23;20004;-75
2024/02/01 13:12:18;;;;;;;4.88;1.13;;;;;;;10.76;71.99;101741.53;6207275;23;20035;-76
2024/02/01 13:15:00;;;;;;;8.48;1.48;;;;;;;10.62;73.04;101734.84;6216043;23;20441;-76
2024/02/01 13:17:34;;;;;;;5.95;0.75;;;;;;;10.45;72.78;101732.28;6206411;23;20044;-76
2024/02/01 13:20:00;;;;;;;2.08;1.85;;;;;;;10.50;73.45;101743.63;6217846;23;20071;-75
2024/02/01 13:22:28;;;;;;;4.00;0.70;;;;;;;10.59;72.90;101746.25;6218243;23;20032;-77
2024/02/01 13:24:54;;;;;;;2.25;0.52;;;;;;;10.48;72.77;101734.28;6205617;23;20023;-77
2024/02/01 13:27:20;;;;;;;5.68;0.98;;;;;;;10.48;73.58;101743.16;6208017;23;20340;-76
2024/02/01 13:29:46;;;;;;;5.18;1.45;;;;;;;10.38;73.70;101740.06;6217424;23;20031;-76
2024/02/01 13:32:14;;;;;;;3.40;1.02;;;;;;;10.27;74.04;101745.03;6206373;23;20036;-77
2024/02/01 13:34:41;;;;;;;6.55;0.90;;;;;;;10.25;74.58;101741.88;6205722;23;20024;-75
2024/02/01 13:37:07;;;;;;;3.75;0.43;;;;;;;10.21;74.68;101738.25;6205830;23;20111;-77
2024/02/01 13:39:43;;;;;;;5.15;0.95;;;;;;;10.24;74.92;101751.06;6205995;23;20443;-77
2024/02/01 13:42:10;;;;;;;4.50;0.68;;;;;;;10.38;73.97;101751.63;6207604;23;20019;-76
2024/02/01 13:44:36;;;;;;;2.80;0.60;;;;;;;10.51;74.41;101739.81;6205878;23;20020;-75
2024/02/01 13:47:04;;;;;;;5.38;1.63;;;;;;;10.70;73.74;101742.06;6205557;23;20435;-76
2024/02/01 13:49:30;;;;;;;3.10;0.70;;;;;;;10.65;73.36;101750.34;6179876;23;20439;-76
2024/02/01 13:51:56;;;;;;;7.40;1.02;;;;;;;10.77;72.72;101756.59;6204329;23;20399;-76
2024/02/01 13:54:22;;;;;;;7.65;1.08;;;;;;;10.69;73.18;101741.28;6180597;23;20016;-77
2024/02/01 13:56:47;;;;;;;1.98;0.70;;;;;;;10.85;71.75;101753.06;6204252;23;20010;-76
2024/02/01 13:59:13;;;;;;;7.20;1.50;;;;;;;10.79;72.49;101757.06;6204591;23;20019;-77
2024/02/01 14:01:38;;;;;;;9.70;1.15;;;;;;;10.84;72.77;101781.09;6206205;23;20017;-76
2024/02/01 14:04:04;;;;;;;4.68;1.45;;;;;;;10.90;72.44;101774.41;6213408;23;20499;-77
2024/02/01 14:06:29;;;;;;;3.60;1.45;;;;;;;10.79;71.06;101777.81;6202899;23;20090;-76
2024/02/01 14:08:56;;;;;;;4.05;0.93;;;;;;;10.67;70.99;101780.44;6178686;23;20063;-79
2024/02/01 14:11:21;;;;;;;5.18;0.63;;;;;;;10.55;70.33;101774.97;6205952;23;20036;-77
2024/02/01 14:13:50;;;;;;;3.38;0.73;;;;;;;10.34;72.17;101777.63;6211041;23;20321;-77
2024/02/01 14:16:16;;;;;;;4.72;0.93;;;;;;;10.45;72.55;101775.34;6210456;23;20028;-76
2024/02/01 14:18:41;;;;;;;3.55;0.80;;;;;;;10.46;71.86;101753.47;6208947;23;20032;-76
2024/02/01 14:21:08;;;;;;;2.63;0.90;;;;;;;10.64;71.58;101773.81;6202832;23;20005;-76
2024/02/01 14:23:34;;;;;;;4.22;0.57;;;;;;;10.86;70.75;101786.16;6243442;23;20343;-77
2024/02/01 14:26:00;;;;;;;8.18;1.13;;;;;;;10.96;69.39;101779.56;6213696;23;20012;-76
2024/02/01 14:28:26;;;;;;;2.08;0.63;;;;;;;10.94;70.30;101782.59;6199348;23;20339;-78
2024/02/01 14:30:51;;;;;;;1.48;0.77;;;;;;;11.07;69.94;101784.25;6176594;23;20087;-74
2024/02/01 14:33:18;;;;;;;4.28;0.57;;;;;;;10.86;70.08;101781.56;6196490;23;21041;-75
2024/02/01 14:35:44;;;;;;;6.43;1.83;;;;;;;10.75;70.43;101787.66;6181648;23;20012;-75
2024/02/01 14:38:09;;;;;;;3.42;0.95;;;;;;;10.91;69.69;101794.06;6193877;23;20395;-75
2024/02/01 14:40:34;;;;;;;2.22;1.15;;;;;;;10.93;69.40;101793.72;6197150;23;20020;-76
2024/02/01 14:43:02;;;;;;;3.97;0.88;;;;;;;10.62;70.36;101797.59;6196773;23;20004;-78
2024/02/01 14:45:28;;;;;;;4.35;0.75;;;;;;;10.79;69.91;101800.16;6213049;23;20061;-77
2024/02/01 14:47:53;;;;;;;7.20;0.82;;;;;;;10.75;69.38;101791.16;6170115;23;20379;-77
2024/02/01 14:50:21;;;;;;;1.50;0.35;;;;;;;10.75;70.03;101798.44;6206089;23;20070;-76
2024/02/01 14:52:46;;;;;;;7.30;0.88;;;;;;;10.41;70.09;101804.84;6198380;23;20001;-76
2024/02/01 14:55:12;;;;;;;7.22;0.20;;;;;;;10.39;70.41;101809.75;6197889;23;20016;-77
2024/02/01 14:57:39;;;;;;;1.85;0.60;;;;;;;10.30;70.89;101798.22;6192437;23;20013;-78
2024/02/01 15:00:08;;;;;;;4.00;0.85;;;;;;;10.28;71.69;101797.75;6218555;23;20070;-77
2024/02/01 15:02:35;;;;;;;7.78;0.70;;;;;;;10.28;71.52;101813.91;6193595;23;20092;-76
2024/02/01 15:05:01;;;;;;;2.35;0.50;;;;;;;10.13;72.41;101811.75;6192259;23;20013;-76
2024/02/01 15:07:26;;;;;;;7.57;1.40;;;;;;;10.21;72.03;101808.25;6191686;23;20007;-76
2024/02/01 15:09:55;;;;;;;2.88;1.10;;;;;;;10.22;73.39;101822.50;6188057;23;20031;-76
2024/02/01 15:12:21;;;;;;;8.13;1.17;;;;;;;10.26;73.40;101824.22;6193784;23;20012;-78
2024/02/01 15:14:47;;;;;;;2.38;1.15;;;;;;;10.35;73.02;101816.09;6196560;23;20459;-77
2024/02/01 15:17:13;;;;;;;2.22;0.73;;;;;;;10.29;73.26;101815.50;6188968;23;20016;-77
2024/02/01 15:19:52;;;;;;;1.45;0.93;;;;;;;10.38;72.91;101820.84;6193904;23;20020;-76
2024/02/01 15:22:36;;;;;;;;;;;;;;;;;;;;;
2024/02/01 15:26:05;;;;;;;;;;;;;;;;;;;;;
2024/02/01 15:29:26;;;;;;;0.50;0.40;;;;;;;9.96;75.71;101820.66;6159798;23;19916;-77
2024/02/01 15:36:04;;;;;;;6.18;0.80;;;;;;;10.13;75.96;101852.13;6144852;23;20059;-76
2024/02/01 15:38:30;;;;;;;4.40;1.10;;;;;;;9.92;76.35;101843.16;6184013;23;20709;-75
2024/02/01 15:40:56;;;;;;;5.50;0.85;;;;;;;9.82;76.86;101846.97;6189200;23;20004;-75
2024/02/01 15:43:23;;;;;;;0.45;0.35;;;;;;;9.77;77.26;101847.16;6164764;23;20171;-76
2024/02/01 15:45:50;;;;;;;3.42;0.75;;;;;;;9.73;77.93;101842.72;6201786;23;20486;-76
2024/02/01 15:48:17;;;;;;;5.97;1.17;;;;;;;10.06;77.35;101838.38;6203536;23;20075;-74
2024/02/01 15:50:46;;;;;;;6.32;1.35;;;;;;;10.10;76.79;101847.41;6211981;23;20736;-75
2024/02/01 15:53:14;;;;;;;1.50;0.68;;;;;;;10.08;77.18;101856.88;6203069;23;20382;-76
2024/02/01 15:55:40;;;;;;;4.22;1.42;;;;;;;10.15;77.32;101858.00;6210714;23;20439;-75
2024/02/01 15:58:07;;;;;;;5.13;1.30;;;;;;;10.18;76.54;101862.72;6200480;23;20100;-75
2024/02/01 16:00:32;;;;;;;3.00;0.93;;;;;;;10.16;76.90;101870.34;6204377;23;20005;-75
2024/02/01 16:02:58;;;;;;;5.57;1.27;;;;;;;10.20;77.14;101863.19;6202018;23;20344;-75
2024/02/01 16:05:49;;;;;;;4.28;0.77;;;;;;;9.94;78.27;101855.19;6202554;23;20455;-76
2024/02/01 16:08:15;;;;;;;3.35;1.27;;;;;;;9.73;79.29;101858.84;6206469;23;20016;-75
2024/02/01 16:10:40;;;;;;;1.35;0.57;;;;;;;9.83;78.57;101869.28;6206815;23;20004;-74
2024/02/01 16:13:06;;;;;;;8.82;1.27;;;;;;;9.53;79.87;101860.28;6225324;23;20016;-75
2024/02/01 16:15:36;;;;;;;2.95;1.15;;;;;;;9.73;79.18;101865.03;6203428;23;20005;-75
2024/02/01 16:18:29;;;;;;;4.15;1.15;;;;;;;9.75;79.30;101867.41;6199437;23;20020;-76
2024/02/01 16:20:56;;;;;;;6.22;1.20;;;;;;;9.83;78.94;101878.13;6195877;23;20448;-76
2024/02/01 16:23:22;;;;;;;0.55;0.52;;;;;;;9.47;80.78;101874.19;6202696;23;20008;-77
2024/02/01 16:25:49;;;;;;;6.20;1.45;;;;;;;9.47;80.60;101877.69;6212208;23;20087;-79
2024/02/01 16:28:30;;;;;;;5.93;1.52;;;;;;;9.42;80.70;101875.16;6201777;23;20010;-75
2024/02/01 16:31:11;;;;;;;3.05;0.82;;;;;;;9.26;81.63;101887.50;6193582;23;20466;-74
2024/02/01 16:33:37;;;;;;;;;;;;;;;9.27;81.44;101881.00;6207105;23;20111;-75
2024/02/01 16:36:07;;;;;;;3.63;0.60;;;;;;;9.34;81.10;101881.34;6179049;23;19970;-82
2024/02/01 16:38:35;;;;;;;7.10;0.80;;;;;;;9.27;81.17;101882.91;6183559;23;20124;-81
2024/02/01 16:41:02;;;;;;;3.50;0.80;;;;;;;9.42;80.60;101893.19;6191273;23;20004;-81
2024/02/01 16:43:35;;;;;;;2.67;0.77;;;;;;;9.44;80.38;101882.91;6186930;23;20449;-81
2024/02/01 16:46:36;;;;;;;2.85;0.80;;;;;;;9.48;79.82;101883.88;6161220;23;20016;-81
2024/02/01 16:49:02;;;;;;;3.58;0.90;;;;;;;9.48;80.04;101895.41;6154105;23;20062;-80
2024/02/01 16:51:28;;;;;;;2.47;0.70;;;;;;;9.35;80.13;101890.97;6208257;23;20320;-81
2024/02/01 16:53:53;;;;;;;5.60;0.95;;;;;;;9.29;80.19;101891.44;6205863;23;20040;-81
2024/02/01 16:56:19;;;;;;;5.75;1.05;;;;;;;9.16;81.46;101893.16;6165844;23;20012;-81
2024/02/01 16:58:49;;;;;;;4.47;1.23;;;;;;;9.05;80.95;101894.56;6200193;23;20317;-81
2024/02/01 17:01:52;;;;;;;5.97;0.90;;;;;;;9.36;79.96;101889.88;6208168;23;20498;-82
2024/02/01 17:04:23;;;;;;;2.88;1.25;;;;;;;9.33;80.61;101900.47;6174074;23;20023;-81
2024/02/01 17:06:49;;;;;;;3.05;0.98;;;;;;;9.32;80.54;101890.81;6206411;23;20009;-82
2024/02/01 17:09:23;;;;;;;1.13;0.45;;;;;;;9.23;81.12;101881.97;6211479;23;20004;-85
2024/02/01 17:11:54;;;;;;;3.30;0.82;;;;;;;9.38;80.45;101890.34;6202459;23;20098;-85
2024/02/01 17:14:19;;;;;;;11.15;2.20;;;;;;;9.32;80.85;101891.59;6176255;23;20435;-85
2024/02/01 17:17:07;;;;;;;2.08;0.90;;;;;;;9.45;80.62;101901.41;6171496;23;20000;-85
2024/02/01 17:19:34;;;;;;;2.35;0.77;;;;;;;9.51;80.28;101899.34;6191738;23;20017;-85
2024/02/01 17:22:26;;;;;;;8.90;1.60;;;;;;;9.39;81.23;101916.13;6201893;23;20016;-85
2024/02/01 17:24:56;;;;;;;1.38;0.47;;;;;;;9.48;81.13;101892.72;6190055;23;20063;-85
2024/02/01 17:27:34;;;;;;;3.40;1.05;;;;;;;9.37;81.19;101896.06;6214226;23;20016;-86
2024/02/01 17:30:06;;;;;;;6.18;1.20;;;;;;;9.35;81.71;101895.56;6200440;23;20012;-85
2024/02/01 17:32:36;;;;;;;11.68;1.48;;;;;;;9.38;81.08;101886.88;6177415;23;20005;-85
2024/02/01 17:35:06;;;;;;;6.70;1.00;;;;;;;9.27;81.47;101889.06;6192182;23;20023;-85
2024/02/01 17:37:37;;;;;;;6.35;1.58;;;;;;;9.05;82.71;101887.31;6170886;23;20012;-85
2024/02/01 17:40:15;;;;;;;1.10;0.73;;;;;;;9.07;82.71;101895.84;6189760;23;20020;-84
2024/02/01 17:42:45;;;;;;;4.55;0.98;;;;;;;9.00;83.39;101895.50;6145877;23;20031;-84